Time;durP1;ratioP1;P1;durP2;ratioP2;P2;SDS_P1;SDS_P2;PMS_P1;PMS_P2;Temp;Humidity;BMP_temperature;BMP_pressure;BME280_temperature;BME280_humidity;BME280_pressure;Samples;Min_cycle;Max_cycle;Signal;HPM_P1;HPM_P2
2022/01/01 00:30:14;;;;;;;33.03;28.73;;;;;;;;;;6134767;22;92948;-85
2022/01/01 00:33:04;;;;;;;31.80;28.40;;;;;;;;;;6163038;22;92563;-86
2022/01/01 00:35:56;;;;;;;30.10;26.90;;;;;;;;;;6164121;22;93214;-84
2022/01/01 00:38:43;;;;;;;32.57;29.43;;;;;;;;;;6183716;22;94589;-83
2022/01/01 00:41:30;;;;;;;31.13;28.03;;;;;;;;;;6162262;22;92308;-85
2022/01/01 00:44:17;;;;;;;32.43;27.33;;;;;;;;;;6161718;22;92212;-84
2022/01/01 00:47:07;;;;;;;32.03;28.63;;;;;;;;;;6164210;22;91428;-85
2022/01/01 00:49:54;;;;;;;28.97;25.87;;;;;;;;;;6162738;22;92311;-85
2022/01/01 01:05:43;;;;;;;35.83;28.47;;;;;;;;;;6099220;22;97901;-85
2022/01/01 01:16:11;;;;;;;30.93;27.73;;;;;;;;;;6181969;22;92812;-84
2022/01/01 01:18:58;;;;;;;31.43;26.97;;;;;;;;;;6163901;22;92304;-86
2022/01/01 01:21:45;;;;;;;29.90;26.90;;;;;;;;;;6164598;22;91841;-85
2022/01/01 01:24:33;;;;;;;29.00;26.10;;;;;;;;;;6164887;22;90888;-85
2022/01/01 01:27:20;;;;;;;29.63;26.40;;;;;;;;;;6185595;22;92006;-85
2022/01/01 01:30:09;;;;;;;35.17;27.33;;;;;;;;;;6181775;22;92035;-85
2022/01/01 01:32:56;;;;;;;28.87;25.90;;;;;;;;;;6184234;22;93756;-84
2022/01/01 01:38:24;;;;;;;29.73;25.87;;;;;;;;;;6129914;22;95597;-85
2022/01/01 01:41:11;;;;;;;28.53;25.63;;;;;;;;;;6182746;22;91549;-86
2022/01/01 01:46:39;;;;;;;29.43;26.33;;;;;;;;;;6159591;22;93240;-86
2022/01/01 02:05:01;;;;;;;27.60;22.70;;;;;;;;;;6162546;22;93923;-84
2022/01/01 02:07:49;;;;;;;30.63;26.00;;;;;;;;;;6187480;22;91815;-85
2022/01/01 02:44:28;;;;;;;42.70;38.47;;;;;;;;;;6152087;22;92967;-85
2022/01/01 02:47:15;;;;;;;47.00;41.90;;;;;;;;;;6091459;22;93693;-85
2022/01/01 03:03:03;;;;;;;54.67;48.80;;;;;;;;;;6127333;22;95116;-85
2022/01/01 03:05:50;;;;;;;53.80;48.57;;;;;;;;;;6134157;22;91503;-86
2022/01/01 03:11:13;;;;;;;54.83;48.97;;;;;;;;;;6156823;22;93194;-84
2022/01/01 03:13:59;;;;;;;50.30;45.27;;;;;;;;;;6183060;22;92331;-84
2022/01/01 03:16:47;;;;;;;52.97;45.60;;;;;;;;;;6182884;22;91942;-84
2022/01/01 03:19:34;;;;;;;56.50;47.43;;;;;;;;;;6161385;22;94533;-85
2022/01/01 03:22:20;;;;;;;51.90;46.50;;;;;;;;;;6163238;22;91920;-84
2022/01/01 03:25:07;;;;;;;50.87;45.53;;;;;;;;;;6162658;22;91604;-84
2022/01/01 03:27:54;;;;;;;51.07;45.97;;;;;;;;;;6182622;22;92831;-84
2022/01/01 03:30:41;;;;;;;52.57;46.97;;;;;;;;;;6183343;22;92424;-84
2022/01/01 03:33:30;;;;;;;53.10;47.13;;;;;;;;;;6163062;22;91422;-84
2022/01/01 03:36:17;;;;;;;54.07;44.20;;;;;;;;;;6162919;22;92566;-84
2022/01/01 03:39:04;;;;;;;52.80;46.37;;;;;;;;;;6163595;22;91701;-85
2022/01/01 03:41:51;;;;;;;55.43;47.73;;;;;;;;;;6163471;22;91476;-85
2022/01/01 03:44:38;;;;;;;51.87;46.23;;;;;;;;;;6163904;22;91408;-84
2022/01/01 03:47:25;;;;;;;54.60;48.60;;;;;;;;;;6161794;22;94046;-85
2022/01/01 03:50:12;;;;;;;51.50;45.90;;;;;;;;;;6162747;22;93880;-84
2022/01/01 03:52:58;;;;;;;52.07;46.40;;;;;;;;;;6163491;22;91409;-85
2022/01/01 03:55:45;;;;;;;51.57;46.13;;;;;;;;;;6183829;22;92052;-84
2022/01/01 03:58:32;;;;;;;53.53;47.73;;;;;;;;;;6163255;22;92241;-85
2022/01/01 04:01:19;;;;;;;53.70;47.93;;;;;;;;;;6163476;22;91878;-85
2022/01/01 04:04:06;;;;;;;55.80;48.67;;;;;;;;;;6163185;22;92292;-84
2022/01/01 04:06:53;;;;;;;54.00;46.77;;;;;;;;;;6184828;22;91563;-83
2022/01/01 04:09:40;;;;;;;51.17;45.87;;;;;;;;;;6162278;22;92801;-84
2022/01/01 04:12:27;;;;;;;52.73;47.17;;;;;;;;;;6182673;22;92495;-84
2022/01/01 04:15:14;;;;;;;51.30;45.33;;;;;;;;;;6163777;22;94267;-84
2022/01/01 04:31:03;;;;;;;52.07;46.40;;;;;;;;;;6131794;22;93743;-85
2022/01/01 04:39:11;;;;;;;59.67;46.17;;;;;;;;;;6053585;22;1256497;-85
2022/01/01 04:41:58;;;;;;;52.60;44.37;;;;;;;;;;6181183;22;94007;-86
2022/01/01 04:44:53;;;;;;;50.83;45.00;;;;;;;;;;6122055;22;96727;-84
2022/01/01 04:47:40;;;;;;;53.50;44.67;;;;;;;;;;6133962;23;91382;-85
2022/01/01 05:11:16;;;;;;;51.60;43.47;;;;;;;;;;6122470;22;93738;-83
2022/01/01 05:14:03;;;;;;;52.97;43.27;;;;;;;;;;6163824;22;91996;-82
2022/01/01 05:22:59;;;;;;;56.37;43.83;;;;;;;;;;6164244;22;93991;-85
2022/01/01 05:25:46;;;;;;;50.67;44.10;;;;;;;;;;6160675;22;92601;-85
2022/01/01 05:28:32;;;;;;;59.70;42.00;;;;;;;;;;6184696;22;91372;-85
2022/01/01 05:31:20;;;;;;;51.93;41.87;;;;;;;;;;6184991;22;91264;-85
2022/01/01 05:34:06;;;;;;;56.63;41.73;;;;;;;;;;6161373;22;91375;-86
2022/01/01 05:36:53;;;;;;;50.07;41.87;;;;;;;;;;6158622;22;93960;-86
2022/01/01 05:39:43;;;;;;;54.63;40.73;;;;;;;;;;6162551;22;93908;-83
2022/01/01 05:42:29;;;;;;;52.50;41.70;;;;;;;;;;6163646;22;91259;-85
2022/01/01 05:45:20;;;;;;;54.13;42.90;;;;;;;;;;6185872;22;92041;-85
2022/01/01 05:50:52;;;;;;;53.13;43.40;;;;;;;;;;6123322;22;93915;-86
2022/01/01 06:17:12;;;;;;;49.10;39.80;;;;;;;;;;6135103;22;93902;-85
2022/01/01 06:25:41;;;;;;;49.33;40.30;;;;;;;;;;6091826;22;94429;-84
2022/01/01 06:33:54;;;;;;;50.00;39.00;;;;;;;;;;6130555;22;94250;-85
2022/01/01 06:36:41;;;;;;;48.33;37.07;;;;;;;;;;6163254;22;91880;-85
2022/01/01 06:39:28;;;;;;;42.40;35.97;;;;;;;;;;6182028;22;91441;-84
2022/01/01 06:42:14;;;;;;;43.67;39.00;;;;;;;;;;6163807;22;92161;-84
2022/01/01 07:32:00;;;;;;;40.60;28.87;;;;;;;;;;6119249;22;93685;-85
2022/01/01 07:34:47;;;;;;;34.30;29.80;;;;;;;;;;6133785;23;92257;-85
2022/01/01 07:37:34;;;;;;;42.30;30.60;;;;;;;;;;6133372;22;91996;-85
2022/01/01 07:42:57;;;;;;;38.17;29.23;;;;;;;;;;6112070;22;93327;-85
2022/01/01 08:32:32;;;;;;;27.13;14.80;;;;;;;;;;6170429;22;93226;-85
2022/01/01 08:35:19;;;;;;;18.97;13.30;;;;;;;;;;6165797;22;92003;-85
2022/01/01 08:48:29;;;;;;;27.90;13.70;;;;;;;;;;6137013;22;93783;-83
2022/01/01 08:51:20;;;;;;;21.93;12.43;;;;;;;;;;6162581;22;92345;-85
2022/01/01 08:54:07;;;;;;;18.67;13.00;;;;;;;;;;6182184;22;91844;-85
2022/01/01 08:56:54;;;;;;;19.10;12.80;;;;;;;;;;6182782;22;92253;-84
2022/01/01 08:59:44;;;;;;;21.07;13.47;;;;;;;;;;6182501;22;91824;-86
2022/01/01 09:02:30;;;;;;;24.80;13.77;;;;;;;;;;6164441;22;91948;-84
2022/01/01 09:05:17;;;;;;;22.00;13.30;;;;;;;;;;6185360;22;91521;-84
2022/01/01 09:08:04;;;;;;;22.23;14.07;;;;;;;;;;6167025;22;91973;-85
2022/01/01 09:16:56;;;;;;;22.27;13.10;;;;;;;;;;6186599;22;96833;-86
2022/01/01 09:19:42;;;;;;;22.73;12.40;;;;;;;;;;6167509;22;91461;-86
2022/01/01 09:22:29;;;;;;;17.57;10.87;;;;;;;;;;6185660;22;91348;-85
2022/01/01 09:25:16;;;;;;;17.40;11.53;;;;;;;;;;6184574;22;92451;-84
2022/01/01 09:28:03;;;;;;;19.17;12.27;;;;;;;;;;6164512;22;92331;-85
2022/01/01 09:30:50;;;;;;;15.50;10.50;;;;;;;;;;6166903;22;91425;-84
2022/01/01 09:33:37;;;;;;;18.37;11.33;;;;;;;;;;6186699;22;91331;-85
2022/01/01 09:36:24;;;;;;;17.00;10.87;;;;;;;;;;6167741;22;91611;-85
2022/01/01 09:41:55;;;;;;;19.50;11.47;;;;;;;;;;6152421;22;96310;-86
2022/01/01 09:44:45;;;;;;;17.20;11.00;;;;;;;;;;6184946;22;92557;-84
2022/01/01 09:47:39;;;;;;;14.83;10.73;;;;;;;;;;6166650;22;91968;-84
2022/01/01 09:50:26;;;;;;;14.13;10.43;;;;;;;;;;6188018;22;92656;-85
2022/01/01 09:53:13;;;;;;;20.43;10.97;;;;;;;;;;6183499;22;91380;-86
2022/01/01 09:56:01;;;;;;;19.50;10.20;;;;;;;;;;6165202;22;91823;-85
2022/01/01 09:59:04;;;;;;;22.50;10.37;;;;;;;;;;6183936;22;91860;-85
2022/01/01 10:07:04;;;;;;;17.50;9.30;;;;;;;;;;6115841;22;93761;-85
2022/01/01 10:34:16;;;;;;;16.97;8.77;;;;;;;;;;6114226;22;93990;-84
2022/01/01 10:37:06;;;;;;;15.07;8.50;;;;;;;;;;6162777;22;93866;-85
2022/01/01 10:39:54;;;;;;;16.00;8.63;;;;;;;;;;6180684;22;92067;-85
2022/01/01 10:42:50;;;;;;;15.73;7.67;;;;;;;;;;6162339;22;92019;-85
2022/01/01 10:45:36;;;;;;;15.83;7.80;;;;;;;;;;6163696;22;92272;-85
2022/01/01 10:48:28;;;;;;;14.33;7.80;;;;;;;;;;6164096;22;92042;-84
2022/01/01 10:51:16;;;;;;;13.67;7.60;;;;;;;;;;6161913;22;92105;-84
2022/01/01 10:54:10;;;;;;;11.77;7.47;;;;;;;;;;6161141;22;92633;-85
2022/01/01 10:56:56;;;;;;;13.10;6.90;;;;;;;;;;6163245;22;91304;-86
2022/01/01 11:00:03;;;;;;;10.60;6.13;;;;;;;;;;6163669;22;91460;-85
2022/01/01 11:02:52;;;;;;;11.43;7.27;;;;;;;;;;6166432;22;91909;-85
2022/01/01 11:08:12;;;;;;;9.60;5.83;;;;;;;;;;6150957;22;94826;-86
2022/01/01 11:11:00;;;;;;;14.63;6.53;;;;;;;;;;6183293;22;92195;-85
2022/01/01 11:13:47;;;;;;;13.10;6.70;;;;;;;;;;6183434;22;91756;-85
2022/01/01 11:16:33;;;;;;;10.03;5.70;;;;;;;;;;6183039;22;91518;-85
2022/01/01 11:19:24;;;;;;;12.13;4.93;;;;;;;;;;6183242;22;91566;-85
2022/01/01 11:22:11;;;;;;;10.73;4.97;;;;;;;;;;6184782;22;91941;-85
2022/01/01 11:24:59;;;;;;;9.40;5.33;;;;;;;;;;6166563;22;90823;-85
2022/01/01 11:27:46;;;;;;;7.47;4.40;;;;;;;;;;6156852;22;92369;-85
2022/01/01 11:30:35;;;;;;;9.00;5.20;;;;;;;;;;6165776;22;91494;-85
